39IS weather

Hagi Landing Area Airport
Streator, Illinois, United States

Public forecast

Using degrees Fahrenheit for public forecast. Weather courtesy of forecast.io.

METAR (pilot weather report)

Closest report is Pontiac Municipal Airport, 13.6 nm (25.2 km) SE. Retrieved 2019/08/25 04:35 UTC (0 seconds ago):

KPNT 250435Z AUTO 00000KT 10SM CLR 14/12 A3018 RMK AO2 T01430119

TAF (pilot weather forecast)

Forecast is more than 12 hours old.

Closest forecast is Central Illinois Regional Airport at Bloomington-Normal, 38.4 nm (71.1 km) S. Retrieved 2019/08/24 00:22 UTC (1 day ago):

TAF KBMI 242320Z 2500/2524 07008KT P6SM SCT250 FM251200 09008KT P6SM BKN250 FM251700 11010KT P6SM SCT050 BKN090